Time;durP1;ratioP1;P1;durP2;ratioP2;P2;SDS_P1;SDS_P2;PMS_P1;PMS_P2;Temp;Humidity;BMP_temperature;BMP_pressure;BME280_temperature;BME280_humidity;BME280_pressure;Samples;Min_cycle;Max_cycle;Signal;HPM_P1;HPM_P2
2021/06/10 00:02:24;;;;;;;;;14.25;12.25;;;;;24.92;37.70;101688.19;5100326;27;45390;-46
2021/06/10 00:04:49;;;;;;;;;12.50;12.00;;;;;24.89;37.95;101683.88;5098902;27;45343;-52
2021/06/10 00:07:16;;;;;;;;;12.00;12.00;;;;;24.90;38.03;101695.47;5100269;27;45517;-51
2021/06/10 00:09:44;;;;;;;;;11.00;11.00;;;;;24.89;37.87;101683.00;5100131;27;45414;-50
2021/06/10 00:12:12;;;;;;;;;14.00;12.00;;;;;24.84;37.98;101688.63;5099961;27;45446;-51
2021/06/10 00:14:38;;;;;;;;;13.00;10.75;;;;;24.81;38.08;101680.75;5082023;27;45269;-50
2021/06/10 00:17:03;;;;;;;;;15.25;12.50;;;;;24.84;38.66;101685.94;5081464;27;45943;-51
2021/06/10 00:19:29;;;;;;;;;13.00;11.50;;;;;24.82;38.75;101685.19;5099684;27;45278;-49
2021/06/10 00:21:54;;;;;;;;;14.75;14.75;;;;;24.78;39.22;101678.25;5100087;27;45232;-52
2021/06/10 00:24:20;;;;;;;;;14.25;12.75;;;;;24.73;39.21;101680.34;5108687;27;45401;-52
2021/06/10 00:26:45;;;;;;;;;13.75;13.75;;;;;24.69;39.10;101678.81;5118823;27;45219;-48
2021/06/10 00:29:11;;;;;;;;;15.50;12.00;;;;;24.63;39.36;101683.56;5110601;27;46357;-51
2021/06/10 00:31:36;;;;;;;;;16.25;14.75;;;;;24.59;39.76;101687.38;5103319;27;45297;-50
2021/06/10 00:34:02;;;;;;;;;12.25;12.25;;;;;24.54;39.63;101684.09;5103365;27;45352;-51
2021/06/10 00:36:27;;;;;;;;;14.00;14.00;;;;;24.52;39.83;101683.31;5103510;27;45358;-51
2021/06/10 00:38:53;;;;;;;;;15.75;15.00;;;;;24.49;39.74;101684.38;5103493;27;46216;-50
2021/06/10 00:41:19;;;;;;;;;13.75;13.75;;;;;24.45;40.21;101690.00;5103279;27;45395;-48
2021/06/10 00:43:45;;;;;;;;;16.25;15.50;;;;;24.42;40.20;101685.66;5103235;27;45311;-49
2021/06/10 00:46:11;;;;;;;;;18.00;15.00;;;;;24.41;40.23;101686.63;5102993;27;45348;-48
2021/06/10 00:48:36;;;;;;;;;14.25;12.50;;;;;24.41;40.16;101683.06;5084472;27;47152;-47
2021/06/10 00:51:02;;;;;;;;;17.75;16.00;;;;;24.41;40.30;101685.75;5103146;27;45243;-51
2021/06/10 00:53:28;;;;;;;;;16.00;14.50;;;;;24.40;40.59;101686.72;5103208;27;45247;-50
2021/06/10 00:55:56;;;;;;;;;14.50;14.50;;;;;24.38;40.83;101684.13;5103134;27;45301;-52
2021/06/10 00:58:22;;;;;;;;;15.75;14.75;;;;;24.36;41.28;101687.84;5102936;27;46158;-50
2021/06/10 01:00:49;;;;;;;;;13.50;13.00;;;;;24.33;42.17;101687.06;5102846;27;45365;-48
2021/06/10 01:03:14;;;;;;;;;13.25;12.00;;;;;24.22;42.11;101673.38;5088707;27;45351;-47
2021/06/10 01:05:42;;;;;;;;;14.75;12.75;;;;;24.27;42.77;101687.41;5104107;27;45496;-50
2021/06/10 01:08:23;;;;;;;;;12.50;12.50;;;;;24.25;43.18;101686.66;5102760;27;45402;-47
2021/06/10 01:10:54;;;;;;;;;14.25;13.00;;;;;24.23;43.43;101690.38;5110641;27;45339;-48
2021/06/10 01:13:26;;;;;;;;;13.25;12.50;;;;;24.20;43.84;101683.38;5123452;27;45219;-51
2021/06/10 01:15:56;;;;;;;;;13.50;11.25;;;;;24.22;44.10;101685.97;5104942;27;45243;-48
2021/06/10 01:18:25;;;;;;;;;14.00;12.25;;;;;24.21;44.25;101682.38;5122874;27;45305;-53
2021/06/10 01:20:54;;;;;;;;;11.50;11.50;;;;;24.20;44.43;101687.84;5104793;27;45298;-49
2021/06/10 01:23:57;;;;;;;;;11.50;10.75;;;;;24.18;44.65;101683.44;5123202;27;45227;-49
2021/06/10 01:26:50;;;;;;;;;10.50;10.50;;;;;24.17;44.78;101691.56;5121728;27;45287;-50
2021/06/10 01:29:18;;;;;;;;;13.00;13.00;;;;;24.16;45.11;101681.78;5110150;27;46092;-55
2021/06/10 01:31:43;;;;;;;;;12.25;12.00;;;;;24.11;45.37;101687.44;5102333;27;45464;-52
2021/06/10 01:34:11;;;;;;;;;15.75;14.75;;;;;24.07;45.70;101671.59;5106701;27;45345;-52
2021/06/10 01:36:40;;;;;;;;;13.25;12.00;;;;;24.05;45.45;101676.16;5103097;27;45255;-52
2021/06/10 01:39:09;;;;;;;;;11.50;11.00;;;;;24.00;45.96;101666.56;5101867;27;45442;-50
2021/06/10 01:41:35;;;;;;;;;13.25;12.25;;;;;23.99;46.37;101672.03;5102357;27;45282;-51
2021/06/10 01:44:02;;;;;;;;;10.25;10.25;;;;;23.96;46.51;101665.00;5102265;27;45237;-52
2021/06/10 01:46:30;;;;;;;;;13.25;11.50;;;;;23.95;46.65;101660.59;5102139;27;45346;-51
2021/06/10 01:48:56;;;;;;;;;9.00;9.00;;;;;23.94;46.88;101661.53;5101883;27;45277;-51
2021/06/10 01:51:24;;;;;;;;;12.50;12.50;;;;;23.91;46.72;101656.34;5102368;27;45416;-50
2021/06/10 01:53:51;;;;;;;;;12.00;11.50;;;;;23.90;46.80;101659.94;5101979;27;45305;-51
2021/06/10 01:56:19;;;;;;;;;9.50;9.50;;;;;23.87;47.00;101662.78;5102314;27;45318;-50
2021/06/10 01:58:47;;;;;;;;;10.75;10.75;;;;;23.84;46.61;101669.19;5101647;27;46229;-48
2021/06/10 02:01:14;;;;;;;;;8.75;8.75;;;;;23.84;46.65;101676.41;5083759;27;45756;-51
2021/06/10 02:03:42;;;;;;;;;13.75;11.50;;;;;23.82;46.87;101675.59;5101640;27;45307;-51
2021/06/10 02:06:09;;;;;;;;;11.50;11.00;;;;;23.75;46.73;101668.84;5101970;27;45366;-49
2021/06/10 02:08:37;;;;;;;;;12.25;11.50;;;;;23.73;47.04;101673.44;5083367;27;46247;-50
2021/06/10 02:11:04;;;;;;;;;14.25;11.25;;;;;23.69;46.97;101662.84;5102041;27;45292;-52
2021/06/10 02:13:31;;;;;;;;;11.00;11.00;;;;;23.68;47.15;101658.47;5101864;27;45499;-52
2021/06/10 02:16:01;;;;;;;;;14.00;12.75;;;;;23.68;47.34;101658.47;5101783;27;45460;-49
2021/06/10 02:18:27;;;;;;;;;13.25;11.75;;;;;23.64;47.28;101653.34;5099873;27;49689;-53
2021/06/10 02:20:52;;;;;;;;;9.50;9.50;;;;;23.62;47.39;101652.56;5101659;27;45291;-51
2021/06/10 02:23:17;;;;;;;;;11.50;11.50;;;;;23.58;47.34;101649.16;5086420;27;45312;-49
2021/06/10 02:25:43;;;;;;;;;9.25;9.25;;;;;23.54;47.31;101650.28;5122175;27;45451;-48
2021/06/10 02:28:09;;;;;;;;;13.00;12.50;;;;;23.46;47.38;101650.72;5118954;27;45411;-52
2021/06/10 02:30:34;;;;;;;;;12.00;11.75;;;;;23.42;47.67;101645.59;5101676;27;45338;-50
2021/06/10 02:33:00;;;;;;;;;11.50;11.00;;;;;23.42;47.65;101659.88;5101278;27;45385;-52
2021/06/10 02:35:26;;;;;;;;;13.50;13.50;;;;;23.39;48.12;101656.50;5101615;27;45240;-52
2021/06/10 02:37:54;;;;;;;;;12.75;12.75;;;;;23.34;48.21;101657.59;5083084;27;45276;-49
2021/06/10 02:40:45;;;;;;;;;14.25;10.75;;;;;23.29;48.02;101659.66;5101545;27;45383;-50
2021/06/10 02:43:11;;;;;;;;;11.50;11.50;;;;;23.26;47.98;101659.84;5082892;27;45493;-51
2021/06/10 02:45:38;;;;;;;;;13.00;13.00;;;;;23.22;48.28;101644.88;5101264;27;45430;-51
2021/06/10 02:48:04;;;;;;;;;12.75;11.75;;;;;23.19;48.16;101648.59;5100986;27;47329;-51
2021/06/10 02:50:30;;;;;;;;;12.25;12.25;;;;;23.17;48.15;101650.47;5082045;27;45414;-52
2021/06/10 02:52:57;;;;;;;;;13.75;11.00;;;;;23.11;48.11;101650.75;5082712;27;45363;-53
2021/06/10 02:55:24;;;;;;;;;15.50;14.25;;;;;23.10;48.10;101650.84;5082988;27;45504;-52
2021/06/10 02:57:53;;;;;;;;;14.00;12.25;;;;;23.08;48.50;101655.41;5100785;27;45500;-52
2021/06/10 03:00:22;;;;;;;;;13.75;13.75;;;;;23.04;48.02;101654.69;5100907;27;45362;-52
2021/06/10 03:02:49;;;;;;;;;13.00;12.00;;;;;22.98;48.38;101653.22;5108227;27;45250;-52
2021/06/10 03:05:16;;;;;;;;;12.50;12.50;;;;;22.98;48.01;101652.34;5121550;27;45433;-51
2021/06/10 03:07:43;;;;;;;;;14.00;13.25;;;;;22.97;47.86;101658.69;5121603;27;46258;-52
2021/06/10 03:10:10;;;;;;;;;13.25;12.00;;;;;22.93;48.00;101655.28;5121409;27;45388;-52
2021/06/10 03:12:38;;;;;;;;;14.00;14.00;;;;;22.93;48.42;101659.75;5103167;27;45386;-51
2021/06/10 03:15:06;;;;;;;;;10.25;10.00;;;;;22.91;48.42;101654.47;5102895;27;45918;-51
2021/06/10 03:17:32;;;;;;;;;13.00;13.00;;;;;22.85;47.97;101658.34;5102611;27;49403;-51
2021/06/10 03:19:58;;;;;;;;;11.50;11.25;;;;;22.81;48.12;101656.75;5121314;27;45360;-52
2021/06/10 03:22:23;;;;;;;;;10.25;10.25;;;;;22.77;48.28;101654.34;5103110;27;45261;-51
2021/06/10 03:24:50;;;;;;;;;15.00;15.00;;;;;22.72;48.44;101659.94;5108807;27;45261;-51
2021/06/10 03:27:16;;;;;;;;;13.75;11.50;;;;;22.67;48.58;101645.91;5121138;27;45358;-51
2021/06/10 03:29:42;;;;;;;;;11.25;11.25;;;;;22.61;48.77;101654.25;5105007;27;45206;-49
2021/06/10 03:32:08;;;;;;;;;12.50;12.25;;;;;22.54;48.45;101651.00;5100531;27;45488;-51
2021/06/10 03:34:33;;;;;;;;;12.50;12.25;;;;;22.50;48.61;101660.13;5100556;27;45233;-52
2021/06/10 03:37:02;;;;;;;;;11.75;10.50;;;;;22.46;48.87;101658.56;5100484;27;46229;-52
2021/06/10 03:39:29;;;;;;;;;12.75;12.75;;;;;22.37;48.51;101655.38;5100562;27;45416;-53
2021/06/10 03:41:56;;;;;;;;;12.00;12.00;;;;;22.33;48.86;101650.25;5100397;27;45325;-51
2021/06/10 03:44:23;;;;;;;;;10.50;10.50;;;;;22.29;49.06;101640.59;5100455;27;45499;-53
2021/06/10 03:46:49;;;;;;;;;12.75;11.75;;;;;22.23;49.18;101633.75;5100046;27;46085;-49
2021/06/10 03:49:15;;;;;;;;;14.25;13.50;;;;;22.19;49.36;101629.50;5082327;27;45259;-51
2021/06/10 03:51:40;;;;;;;;;13.75;12.00;;;;;22.16;49.28;101637.69;5100529;27;45505;-50
2021/06/10 03:54:07;;;;;;;;;12.75;10.50;;;;;22.12;49.50;101634.28;5100404;27;45429;-48
2021/06/10 03:56:33;;;;;;;;;14.25;12.25;;;;;22.12;49.08;101641.47;5092588;27;47173;-52
2021/06/10 03:58:58;;;;;;;;;14.75;14.25;;;;;22.08;49.73;101636.22;5103230;27;45272;-51
2021/06/10 04:01:24;;;;;;;;;10.75;10.75;;;;;22.04;49.52;101637.34;5100424;27;45492;-50
2021/06/10 04:03:49;;;;;;;;;11.75;10.50;;;;;22.01;49.21;101634.81;5103237;27;45283;-48
2021/06/10 04:06:16;;;;;;;;;11.25;10.75;;;;;21.98;49.70;101642.13;5103923;27;45452;-47
2021/06/10 04:08:42;;;;;;;;;42.75;35.50;;;;;21.97;49.37;101632.34;5103852;27;45264;-47
2021/06/10 04:11:08;;;;;;;;;18.50;17.25;;;;;21.95;49.46;101637.78;5104121;27;45267;-48
2021/06/10 04:13:33;;;;;;;;;19.00;17.00;;;;;21.93;49.63;101639.66;5103525;27;45620;-49
2021/06/10 04:15:59;;;;;;;;;12.50;10.75;;;;;21.93;50.05;101636.97;5103666;27;45959;-51
2021/06/10 04:18:24;;;;;;;;;14.50;13.00;;;;;21.95;49.97;101642.25;5103290;27;45293;-52
2021/06/10 04:20:50;;;;;;;;;11.75;11.75;;;;;21.95;49.74;101644.94;5104015;27;45302;-52
2021/06/10 04:23:16;;;;;;;;;14.75;13.75;;;;;21.94;49.38;101643.19;5106068;27;45392;-51
2021/06/10 04:25:42;;;;;;;;;13.50;12.00;;;;;21.95;49.52;101645.81;5105227;27;48345;-53
2021/06/10 04:28:07;;;;;;;;;12.50;12.25;;;;;21.98;49.83;101648.31;5120979;27;45309;-53
2021/06/10 04:30:33;;;;;;;;;15.00;13.25;;;;;22.00;49.48;101643.78;5103807;27;45298;-53
2021/06/10 04:32:58;;;;;;;;;10.00;10.00;;;;;22.04;49.12;101648.03;5103363;27;46400;-51
2021/06/10 04:35:24;;;;;;;;;11.75;10.50;;;;;22.03;49.19;101638.28;5103429;27;45776;-50
2021/06/10 04:37:49;;;;;;;;;12.00;9.00;;;;;22.06;49.08;101643.50;5103266;27;45396;-52
2021/06/10 04:40:15;;;;;;;;;13.75;10.75;;;;;22.16;49.50;101657.31;5085316;27;45302;-53
2021/06/10 04:42:41;;;;;;;;;11.25;10.75;;;;;22.22;48.86;101667.69;5103050;27;45329;-53
2021/06/10 04:45:06;;;;;;;;;10.50;10.50;;;;;22.25;48.90;101666.69;5103207;27;45387;-54
2021/06/10 04:47:32;;;;;;;;;11.00;11.00;;;;;;;;5102873;27;45246;-51
2021/06/10 04:49:58;;;;;;;;;9.50;9.50;;;;;22.27;49.01;101651.41;5085110;27;45260;-49
2021/06/10 04:52:23;;;;;;;;;11.00;11.00;;;;;22.33;48.53;101656.47;5084808;27;45221;-50
2021/06/10 04:54:48;;;;;;;;;10.00;9.00;;;;;22.35;48.25;101662.63;5103119;27;45485;-53
2021/06/10 04:57:14;;;;;;;;;10.50;9.50;;;;;22.37;48.09;101659.88;5102999;27;45212;-52
2021/06/10 04:59:39;;;;;;;;;10.00;10.00;;;;;22.34;48.18;101652.84;5103306;27;45286;-54
2021/06/10 05:02:05;;;;;;;;;9.00;9.00;;;;;22.36;48.11;101655.44;5102514;27;45240;-65
2021/06/10 05:04:31;;;;;;;;;10.00;9.75;;;;;22.38;47.51;101658.94;5106715;27;45461;-65
2021/06/10 05:06:56;;;;;;;;;9.00;9.00;;;;;22.43;46.77;101666.72;5108536;27;45462;-66
2021/06/10 05:09:22;;;;;;;;;6.00;6.00;;;;;22.46;46.92;101666.59;5110718;27;45281;-50
2021/06/10 05:11:47;;;;;;;;;8.00;7.00;;;;;22.50;45.84;101665.50;5112724;27;45394;-50
2021/06/10 05:14:12;;;;;;;;;7.00;7.00;;;;;22.56;45.95;101668.75;5116623;27;46088;-49
2021/06/10 05:16:38;;;;;;;;;7.00;6.75;;;;;22.63;45.50;101666.63;5121937;27;45329;-47
2021/06/10 05:19:03;;;;;;;;;7.00;6.00;;;;;22.68;44.50;101664.56;5112751;27;45358;-47
2021/06/10 05:21:29;;;;;;;;;7.00;7.00;;;;;22.70;44.49;101665.38;5122152;27;45501;-46
2021/06/10 05:23:55;;;;;;;;;5.50;5.50;;;;;22.78;44.56;101669.44;5123097;27;45890;-48
2021/06/10 05:26:21;;;;;;;;;7.00;7.00;;;;;22.85;44.01;101670.88;5103426;27;45326;-48
2021/06/10 05:28:46;;;;;;;;;7.50;7.50;;;;;22.92;43.82;101666.06;5122284;27;45300;-50
2021/06/10 05:31:12;;;;;;;;;6.75;6.00;;;;;22.92;43.87;101661.59;5103498;27;45602;-47
2021/06/10 05:33:37;;;;;;;;;6.75;6.75;;;;;22.99;43.20;101668.38;5084386;27;47145;-51
2021/06/10 05:36:04;;;;;;;;;5.50;5.50;;;;;23.06;43.02;101666.22;5109746;27;45372;-50
2021/06/10 05:38:30;;;;;;;;;6.25;5.00;;;;;23.10;43.33;101670.47;5122104;27;45480;-50
2021/06/10 05:40:55;;;;;;;;;8.00;7.25;;;;;23.16;42.70;101670.19;5108987;27;45557;-48
2021/06/10 05:43:23;;;;;;;;;8.25;7.25;;;;;23.20;42.27;101670.88;5121707;27;45621;-52
2021/06/10 05:45:52;;;;;;;;;6.25;5.50;;;;;23.25;41.89;101668.81;5109208;27;45384;-48
2021/06/10 05:48:18;;;;;;;;;6.50;5.25;;;;;23.32;41.88;101677.41;5121661;27;45216;-53
2021/06/10 05:50:47;;;;;;;;;4.00;4.00;;;;;23.37;41.33;101672.69;5122779;27;45438;-53
2021/06/10 05:53:15;;;;;;;;;5.75;5.75;;;;;23.42;41.10;101667.06;5121480;27;46202;-50
2021/06/10 05:55:40;;;;;;;;;6.00;6.00;;;;;23.47;40.93;101670.34;5122463;27;45368;-58
2021/06/10 05:58:05;;;;;;;;;6.25;6.25;;;;;23.50;41.14;101662.16;5121607;27;45236;-58
2021/06/10 06:00:31;;;;;;;;;6.00;6.00;;;;;23.48;40.91;101667.59;5121396;27;45292;-58
2021/06/10 06:02:57;;;;;;;;;6.25;6.25;;;;;23.53;40.96;101676.28;5120487;27;46405;-57
2021/06/10 06:05:22;;;;;;;;;5.00;5.00;;;;;23.53;40.72;101678.94;5122652;27;45259;-55
2021/06/10 06:07:49;;;;;;;;;11.50;8.75;;;;;23.57;40.70;101674.28;5122278;27;45432;-53
2021/06/10 06:10:15;;;;;;;;;5.25;5.25;;;;;23.65;40.76;101676.56;5120351;27;45601;-58
2021/06/10 06:12:41;;;;;;;;;6.75;6.00;;;;;23.71;39.91;101681.59;5120387;27;46430;-50
2021/06/10 06:15:08;;;;;;;;;5.75;5.75;;;;;23.76;39.67;101684.88;5121896;27;45427;-47
2021/06/10 06:17:34;;;;;;;;;31.00;24.75;;;;;23.81;39.57;101682.81;5121580;27;45264;-50
2021/06/10 06:19:59;;;;;;;;;4.25;4.25;;;;;23.84;38.57;101685.28;5122183;27;45689;-47
2021/06/10 06:22:26;;;;;;;;;6.50;6.50;;;;;23.82;38.65;101692.59;5103391;27;47041;-49
2021/06/10 06:24:52;;;;;;;;;7.00;7.00;;;;;23.82;38.74;101697.06;5122242;27;45388;-49
2021/06/10 06:27:18;;;;;;;;;5.25;5.25;;;;;23.85;38.63;101699.59;5112244;27;45461;-49
2021/06/10 06:29:44;;;;;;;;;4.00;4.00;;;;;23.89;37.94;101698.47;5122012;27;45370;-52
2021/06/10 06:32:09;;;;;;;;;7.00;5.00;;;;;23.90;37.84;101697.53;5122887;27;45343;-53
2021/06/10 06:34:35;;;;;;;;;4.00;4.00;;;;;23.89;37.65;101701.16;5120883;27;45237;-52
2021/06/10 06:37:00;;;;;;;;;3.25;3.25;;;;;23.83;37.45;101694.28;5122164;27;45248;-52
2021/06/10 06:39:25;;;;;;;;;3.50;3.50;;;;;23.75;37.26;101698.34;5103393;27;45252;-52
2021/06/10 06:41:52;;;;;;;;;4.00;4.00;;;;;23.77;37.52;101699.13;5121889;27;46004;-51
2021/06/10 06:44:17;;;;;;;;;3.25;3.25;;;;;23.80;37.51;101699.84;5121997;27;45307;-51
2021/06/10 06:46:42;;;;;;;;;3.50;3.50;;;;;23.88;37.68;101706.63;5103373;27;45311;-52
2021/06/10 06:49:08;;;;;;;;;5.50;4.50;;;;;23.95;37.17;101706.22;5122993;27;45317;-48
2021/06/10 06:51:33;;;;;;;;;7.00;5.00;;;;;23.98;37.04;101715.91;5104921;27;46167;-49
2021/06/10 06:53:59;;;;;;;;;3.75;3.75;;;;;23.99;36.97;101713.13;5101219;27;45295;-53
2021/06/10 06:56:25;;;;;;;;;4.25;4.25;;;;;24.01;36.56;101719.31;5108166;27;45315;-52
2021/06/10 06:58:52;;;;;;;;;5.00;4.25;;;;;24.01;37.04;101716.63;5103330;27;45279;-51
2021/06/10 07:01:18;;;;;;;;;4.50;4.00;;;;;24.03;36.86;101724.56;5121789;27;45285;-52
2021/06/10 07:03:43;;;;;;;;;5.00;5.00;;;;;24.02;37.40;101723.72;5107886;27;46670;-52
2021/06/10 07:06:09;;;;;;;;;4.50;4.00;;;;;23.99;37.01;101726.56;5107559;27;45204;-50
2021/06/10 07:08:34;;;;;;;;;4.00;4.00;;;;;24.01;36.86;101727.34;5100443;27;45506;-50
2021/06/10 07:11:00;;;;;;;;;7.25;5.50;;;;;24.06;36.62;101736.97;5118534;27;45893;-53
2021/06/10 07:13:26;;;;;;;;;5.00;5.00;;;;;24.11;37.05;101737.56;5108188;27;45453;-53
2021/06/10 07:15:52;;;;;;;;;3.75;3.75;;;;;24.18;36.56;101739.81;5102855;27;45395;-49
2021/06/10 07:18:19;;;;;;;;;5.00;5.00;;;;;24.25;36.85;101745.72;5100486;27;45336;-52
2021/06/10 07:20:44;;;;;;;;;5.25;4.25;;;;;24.40;36.55;101748.50;5100441;27;45401;-50
2021/06/10 07:23:10;;;;;;;;;6.25;6.25;;;;;24.46;36.57;101748.13;5099281;27;45339;-52
2021/06/10 07:25:36;;;;;;;;;5.00;5.00;;;;;24.51;36.32;101746.06;5082587;27;45434;-52
2021/06/10 07:28:02;;;;;;;;;4.75;4.75;;;;;24.54;35.81;101740.53;5103421;27;45320;-50
2021/06/10 07:30:28;;;;;;;;;4.00;4.00;;;;;24.59;35.91;101748.28;5100464;27;46144;-52
2021/06/10 07:32:53;;;;;;;;;4.50;4.50;;;;;24.60;35.52;101739.28;5100359;27;45147;-50
2021/06/10 07:35:21;;;;;;;;;7.00;3.00;;;;;24.57;35.24;101734.09;5100798;27;45707;-50
2021/06/10 07:37:51;;;;;;;;;4.25;4.25;;;;;24.53;35.33;101738.78;5081862;27;45457;-53
2021/06/10 07:40:19;;;;;;;;;6.00;4.00;;;;;24.53;35.53;101743.28;5100384;27;45267;-50
2021/06/10 07:42:44;;;;;;;;;6.00;4.50;;;;;24.52;35.26;101738.88;5100327;27;45476;-53
2021/06/10 07:45:11;;;;;;;;;9.00;4.50;;;;;24.49;35.18;101738.09;5100463;27;45342;-52
2021/06/10 07:47:36;;;;;;;;;5.50;5.50;;;;;24.41;35.42;101745.72;5100400;27;45557;-47
2021/06/10 07:50:03;;;;;;;;;6.75;5.50;;;;;24.39;35.30;101744.94;5100156;27;45986;-50
2021/06/10 07:52:29;;;;;;;;;4.25;4.25;;;;;24.46;35.23;101750.81;5100382;27;45298;-48
2021/06/10 07:54:54;;;;;;;;;5.00;4.00;;;;;24.62;34.96;101743.59;5100403;27;45423;-52
2021/06/10 07:57:20;;;;;;;;;3.00;3.00;;;;;24.73;34.33;101739.47;5100198;27;45373;-50
2021/06/10 07:59:46;;;;;;;;;3.50;3.50;;;;;24.82;34.61;101747.84;5081932;27;47148;-52
2021/06/10 08:02:12;;;;;;;;;4.50;3.25;;;;;24.98;34.32;101750.50;5111460;27;45200;-51
2021/06/10 08:04:37;;;;;;;;;3.50;3.50;;;;;25.20;34.30;101748.38;5121010;27;45235;-52
2021/06/10 08:07:03;;;;;;;;;3.50;2.75;;;;;25.38;33.69;101751.78;5120965;27;45221;-49
2021/06/10 08:09:32;;;;;;;;;4.75;3.50;;;;;25.47;33.54;101743.13;5120799;27;47049;-52
2021/06/10 08:11:57;;;;;;;;;4.25;4.25;;;;;25.45;33.58;101743.25;5120611;27;45278;-51
2021/06/10 08:14:23;;;;;;;;;4.00;4.00;;;;;25.34;33.68;101729.56;5116550;27;45244;-53
2021/06/10 08:16:48;;;;;;;;;7.50;5.00;;;;;25.26;33.76;101738.09;5100163;27;45299;-51
2021/06/10 08:19:14;;;;;;;;;5.75;5.75;;;;;25.17;33.83;101738.66;5081655;27;47114;-51
2021/06/10 08:21:39;;;;;;;;;4.75;4.00;;;;;25.10;34.03;101746.22;5099916;27;45421;-52
2021/06/10 08:24:05;;;;;;;;;5.50;5.00;;;;;25.09;34.11;101738.25;5100182;27;45274;-52
2021/06/10 08:26:30;;;;;;;;;6.50;5.00;;;;;25.02;33.94;101732.38;5101392;27;45422;-52
2021/06/10 08:28:56;;;;;;;;;4.25;4.25;;;;;24.98;34.08;101738.88;5102733;27;45308;-53
2021/06/10 08:31:21;;;;;;;;;4.50;4.50;;;;;24.88;34.51;101735.91;5081608;27;45327;-51
2021/06/10 08:33:47;;;;;;;;;6.25;5.00;;;;;24.92;34.03;101731.19;5099764;27;45322;-50
2021/06/10 08:36:12;;;;;;;;;6.50;6.50;;;;;24.93;34.24;101733.78;5099958;27;45466;-53
2021/06/10 08:38:38;;;;;;;;;7.00;7.00;;;;;24.93;34.11;101728.41;5099630;27;46929;-51
2021/06/10 08:41:05;;;;;;;;;5.75;4.50;;;;;24.89;33.56;101729.56;5100061;27;45374;-51
2021/06/10 08:43:31;;;;;;;;;4.75;4.75;;;;;24.92;34.34;101726.69;5064515;27;45235;-49
2021/06/10 08:46:08;;;;;;;;;6.25;6.25;;;;;24.98;34.21;101728.13;5099631;27;45713;-49
2021/06/10 08:48:37;;;;;;;;;5.00;5.00;;;;;25.02;34.01;101729.69;5099186;27;45276;-50
2021/06/10 08:51:04;;;;;;;;;6.00;4.25;;;;;25.04;34.14;101730.44;5103247;27;45374;-52
2021/06/10 08:53:30;;;;;;;;;5.00;3.00;;;;;25.08;33.98;101725.75;5103102;27;45311;-51
2021/06/10 08:55:56;;;;;;;;;4.75;4.25;;;;;25.13;34.20;101723.66;5084797;27;45248;-50
2021/06/10 08:58:26;;;;;;;;;5.75;5.75;;;;;25.19;34.59;101727.81;5102738;27;46321;-51
2021/06/10 09:00:54;;;;;;;;;6.50;5.00;;;;;25.27;34.50;101723.69;5102942;27;45279;-53
2021/06/10 09:03:25;;;;;;;;;5.00;5.00;;;;;25.32;34.55;101731.50;5123477;27;45222;-51
2021/06/10 09:06:06;;;;;;;;;6.00;6.00;;;;;25.37;34.04;101724.03;5123278;27;45320;-52
2021/06/10 09:08:33;;;;;;;;;4.50;4.50;;;;;25.54;33.94;101730.19;5123548;27;46373;-52
2021/06/10 09:11:22;;;;;;;;;6.00;6.00;;;;;25.75;33.31;101730.69;5104753;27;45402;-51
2021/06/10 09:13:55;;;;;;;;;6.25;5.00;;;;;25.81;34.10;101722.22;5123269;27;45354;-51
2021/06/10 09:16:34;;;;;;;;;5.50;5.50;;;;;25.82;33.27;101718.53;5102802;27;45513;-50
2021/06/10 09:19:02;;;;;;;;;8.50;7.00;;;;;25.83;33.62;101720.28;5102419;27;46341;-51
2021/06/10 09:21:34;;;;;;;;;7.75;3.00;;;;;25.82;33.77;101706.91;5102512;27;45476;-53
2021/06/10 09:24:14;;;;;;;;;6.75;5.75;;;;;25.88;33.32;101709.22;5084269;27;45272;-53
2021/06/10 09:26:40;;;;;;;;;8.75;7.25;;;;;25.95;32.94;101706.03;5086807;27;45319;-52
2021/06/10 09:29:06;;;;;;;;;4.50;4.00;;;;;26.05;33.85;101710.81;5103090;27;46475;-50
2021/06/10 09:31:33;;;;;;;;;6.75;6.25;;;;;26.10;33.27;101708.72;5102140;27;45318;-52
2021/06/10 09:34:05;;;;;;;;;8.00;8.00;;;;;26.04;33.67;101706.41;5102211;27;45323;-49
2021/06/10 09:36:30;;;;;;;;;6.25;6.25;;;;;26.06;33.64;101709.88;5102292;27;45398;-52
2021/06/10 09:39:24;;;;;;;;;9.00;7.25;;;;;26.10;33.31;101711.41;5101953;27;46067;-53
2021/06/10 09:41:59;;;;;;;;;8.75;8.75;;;;;26.12;32.99;101712.19;5099639;27;45315;-53
2021/06/10 09:44:40;;;;;;;;;60.00;48.50;;;;;26.17;32.76;101717.28;5101997;27;45536;-53
2021/06/10 09:47:07;;;;;;;;;273.67;245.33;;;;;26.23;32.78;101715.03;5101405;27;45185;-51
2021/06/10 09:49:33;;;;;;;;;7.25;7.00;;;;;26.31;32.50;101717.22;5102110;27;46289;-52
2021/06/10 09:51:58;;;;;;;;;8.00;8.00;;;;;26.36;33.26;101712.41;5101875;27;45398;-52
2021/06/10 09:54:44;;;;;;;;;8.50;7.50;;;;;26.43;33.01;101716.44;5102589;27;45464;-53
2021/06/10 09:57:12;;;;;;;;;7.00;6.75;;;;;26.48;32.77;101718.81;5102188;27;45249;-52
2021/06/10 09:59:53;;;;;;;;;10.00;9.50;;;;;26.58;33.31;101716.38;5101688;27;46543;-52
2021/06/10 10:02:20;;;;;;;;;11.25;10.00;;;;;26.63;33.43;101714.25;5113972;27;45382;-53
2021/06/10 10:05:00;;;;;;;;;8.25;6.75;;;;;26.69;32.53;101712.94;5104123;27;45359;-51
2021/06/10 10:07:27;;;;;;;;;8.25;8.25;;;;;26.77;32.79;101721.44;5122413;27;45383;-51
2021/06/10 10:09:56;;;;;;;;;9.75;9.75;;;;;26.86;32.68;101712.72;5122482;27;46059;-53
2021/06/10 10:12:22;;;;;;;;;9.00;9.00;;;;;27.04;32.43;101713.31;5122268;27;45487;-52
2021/06/10 10:14:47;;;;;;;;;9.25;7.25;;;;;27.30;32.04;101713.31;5113761;27;45330;-52
2021/06/10 10:17:13;;;;;;;;;9.75;8.25;;;;;27.69;31.62;101714.19;5101491;27;45477;-51
2021/06/10 10:19:39;;;;;;;;;7.75;7.25;;;;;28.02;30.61;101709.16;5101382;27;45315;-50
2021/06/10 10:22:10;;;;;;;;;12.00;9.00;;;;;28.30;30.18;101707.13;5083261;27;45299;-53
2021/06/10 10:24:37;;;;;;;;;8.25;8.25;;;;;28.50;30.65;101716.44;5101942;27;45252;-51
2021/06/10 10:27:02;;;;;;;;;6.25;6.25;;;;;28.59;30.05;101709.47;5104872;27;45251;-51
2021/06/10 10:29:28;;;;;;;;;11.00;8.50;;;;;28.63;29.54;101700.16;5100283;27;48567;-52
2021/06/10 10:31:53;;;;;;;;;9.75;8.50;;;;;28.77;29.51;101701.88;5101214;27;45196;-49
2021/06/10 10:34:29;;;;;;;;;9.00;9.00;;;;;28.80;29.37;101699.75;5101794;27;45266;-50
2021/06/10 10:36:55;;;;;;;;;8.50;8.00;;;;;29.14;29.23;101705.25;5101590;27;45335;-53
2021/06/10 10:39:30;;;;;;;;;8.75;8.75;;;;;29.62;28.87;101700.66;5101303;27;45967;-51
2021/06/10 10:41:56;;;;;;;;;7.50;6.50;;;;;29.79;28.30;101702.03;5101091;27;45315;-50
2021/06/10 10:44:31;;;;;;;;;11.75;9.75;;;;;30.91;28.24;101693.69;5101431;27;45275;-50
2021/06/10 10:46:59;;;;;;;;;10.00;8.75;;;;;31.19;27.38;101696.75;5101103;27;45468;-51
2021/06/10 10:49:26;;;;;;;;;8.00;7.25;;;;;31.35;26.75;101697.13;5101324;27;47147;-52
2021/06/10 10:51:52;;;;;;;;;7.25;7.25;;;;;33.90;26.30;101697.19;5101178;27;45346;-52
2021/06/10 10:54:37;;;;;;;;;5.00;5.00;;;;;37.40;23.11;101693.81;5101367;27;45488;-52
2021/06/10 10:57:03;;;;;;;;;10.00;9.25;;;;;39.64;20.41;101691.03;5101146;27;45256;-53
2021/06/10 10:59:50;;;;;;;;;7.25;7.25;;;;;42.14;18.35;101700.16;5082651;27;47108;-54
2021/06/10 11:02:19;;;;;;;;;7.00;6.75;;;;;43.79;17.20;101701.25;5112777;27;45296;-51
2021/06/10 11:04:58;;;;;;;;;7.25;7.25;;;;;46.83;14.92;101704.03;5121720;27;45338;-53
2021/06/10 11:07:32;;;;;;;;;10.00;10.00;;;;;49.49;12.74;101705.47;5121386;27;45511;-51
2021/06/10 11:09:58;;;;;;;;;8.00;8.00;;;;;52.38;12.33;101701.50;5121505;27;46111;-55
2021/06/10 11:12:47;;;;;;;;;10.00;8.00;;;;;55.18;10.13;101701.34;5102143;27;45464;-53
2021/06/10 11:15:16;;;;;;;;;5.00;5.00;;;;;56.50;9.49;101698.69;5109540;27;45361;-52
2021/06/10 11:17:45;;;;;;;;;7.75;7.75;;;;;56.31;8.12;101690.28;5100402;27;45260;-53
2021/06/10 11:20:14;;;;;;;;;8.75;7.50;;;;;53.64;7.95;101684.81;5100534;27;45784;-53
2021/06/10 11:22:46;;;;;;;;;8.50;7.00;;;;;50.25;9.58;101681.38;5100409;27;45319;-54